createdAt,value
2023-05-16T00:00:19.183Z,36.05
2023-05-16T00:01:19.218Z,36.12
2023-05-16T00:02:19.280Z,36.12
2023-05-16T00:03:19.349Z,36.12
2023-05-16T00:04:19.340Z,36.08
2023-05-16T00:05:19.366Z,36.06
2023-05-16T00:06:19.359Z,36.04
2023-05-16T00:07:19.428Z,36.07
2023-05-16T00:08:19.436Z,36.07
2023-05-16T00:09:19.478Z,36.02
2023-05-16T00:10:19.513Z,36.09
2023-05-16T00:11:19.511Z,36.04
2023-05-16T00:12:19.668Z,36.03
2023-05-16T00:13:19.599Z,36.03
2023-05-16T00:14:19.728Z,36.00
2023-05-16T00:15:19.811Z,36.03
2023-05-16T00:16:19.715Z,36.08
2023-05-16T00:17:19.738Z,36.03
2023-05-16T00:18:19.767Z,36.09
2023-05-16T00:19:19.854Z,36.18
2023-05-16T00:20:19.841Z,36.17
2023-05-16T00:21:21.699Z,36.06
2023-05-16T00:22:19.881Z,36.12
2023-05-16T00:23:19.884Z,36.18
2023-05-16T00:24:19.872Z,36.12
2023-05-16T00:25:19.865Z,36.11
2023-05-16T00:26:19.867Z,36.07
2023-05-16T00:27:19.879Z,36.04
2023-05-16T00:28:19.885Z,36.02
2023-05-16T00:29:19.847Z,36.11
2023-05-16T00:30:19.829Z,36.04
2023-05-16T00:31:19.899Z,35.98
2023-05-16T00:32:20.011Z,36.09
2023-05-16T00:33:19.880Z,36.01
2023-05-16T00:34:19.861Z,36.00
2023-05-16T00:35:19.803Z,35.97
2023-05-16T00:36:20.981Z,36.02
2023-05-16T00:37:19.802Z,36.02
2023-05-16T00:38:19.798Z,35.93
2023-05-16T00:39:19.773Z,35.99
2023-05-16T00:40:19.767Z,35.99
2023-05-16T00:41:19.761Z,35.98
2023-05-16T00:42:19.804Z,35.97
2023-05-16T00:43:19.756Z,35.95
2023-05-16T00:44:19.747Z,35.90
2023-05-16T00:45:19.741Z,35.90
2023-05-16T00:46:19.809Z,35.97
2023-05-16T00:47:19.729Z,35.98
2023-05-16T00:48:19.718Z,36.02
2023-05-16T00:49:19.703Z,35.99
2023-05-16T00:50:19.721Z,35.95
2023-05-16T00:51:19.716Z,35.88
2023-05-16T00:52:19.702Z,35.94
2023-05-16T00:53:19.686Z,35.92
2023-05-16T00:54:19.690Z,35.89
2023-05-16T00:55:19.659Z,35.90
2023-05-16T00:56:19.671Z,35.95
2023-05-16T00:57:19.662Z,35.91
2023-05-16T00:58:19.666Z,35.87
2023-05-16T00:59:19.670Z,35.91
2023-05-16T01:00:19.677Z,35.98
2023-05-16T01:01:19.718Z,36.01
2023-05-16T01:02:19.689Z,36.01
2023-05-16T01:03:19.857Z,35.91
2023-05-16T01:04:19.618Z,35.89
2023-05-16T01:05:19.610Z,35.96
2023-05-16T01:06:19.639Z,35.93
2023-05-16T01:07:19.607Z,35.86
2023-05-16T01:08:19.577Z,35.84
2023-05-16T01:09:19.578Z,35.82
2023-05-16T01:10:19.584Z,35.92
2023-05-16T01:11:19.546Z,35.96
2023-05-16T01:12:19.575Z,35.95
2023-05-16T01:13:19.578Z,35.90
2023-05-16T01:14:19.549Z,35.90
2023-05-16T01:15:19.505Z,35.96
2023-05-16T01:16:19.565Z,35.91
2023-05-16T01:17:19.515Z,35.84
2023-05-16T01:18:19.569Z,35.90
2023-05-16T01:19:19.548Z,35.86
2023-05-16T01:20:19.500Z,35.93
2023-05-16T01:21:19.462Z,35.94
2023-05-16T01:22:19.489Z,35.80
2023-05-16T01:23:19.495Z,35.82
2023-05-16T01:24:19.458Z,35.81
2023-05-16T01:25:19.517Z,35.79
2023-05-16T01:26:19.418Z,35.79
2023-05-16T01:27:19.448Z,35.83
2023-05-16T01:28:19.445Z,35.83
2023-05-16T01:29:19.439Z,35.77
2023-05-16T01:30:19.400Z,35.77
2023-05-16T01:31:19.474Z,35.76
2023-05-16T01:32:19.400Z,35.80
2023-05-16T01:33:19.382Z,35.77
2023-05-16T01:34:19.427Z,35.76
2023-05-16T01:35:19.424Z,35.80
2023-05-16T01:36:19.490Z,35.79
2023-05-16T01:37:19.511Z,35.88
2023-05-16T01:38:19.559Z,35.78
2023-05-16T01:39:19.609Z,35.69
2023-05-16T01:40:19.638Z,35.78
2023-05-16T01:41:19.633Z,35.71
2023-05-16T01:42:19.671Z,35.79
2023-05-16T01:43:19.714Z,35.69
2023-05-16T01:44:19.797Z,35.78
2023-05-16T01:45:19.806Z,35.76
2023-05-16T01:46:19.847Z,35.76
2023-05-16T01:47:19.877Z,35.76
2023-05-16T01:48:19.937Z,35.87
2023-05-16T01:49:19.975Z,35.84
2023-05-16T01:50:19.977Z,35.79
2023-05-16T01:51:20.030Z,35.80
2023-05-16T01:52:20.057Z,35.84
2023-05-16T01:53:20.128Z,35.80
2023-05-16T01:54:20.144Z,35.81
2023-05-16T01:55:20.183Z,35.83
2023-05-16T01:56:20.226Z,35.80
2023-05-16T01:57:20.280Z,35.75
2023-05-16T01:58:20.331Z,35.80
2023-05-16T01:59:20.337Z,35.77
2023-05-16T02:00:20.380Z,35.75
2023-05-16T02:01:20.476Z,35.85
2023-05-16T02:02:20.530Z,35.78
2023-05-16T02:03:20.528Z,35.82
2023-05-16T02:04:20.656Z,35.78
2023-05-16T02:05:20.560Z,35.81
2023-05-16T02:06:20.617Z,35.77
2023-05-16T02:07:20.666Z,35.73
2023-05-16T02:08:20.748Z,35.71
2023-05-16T02:09:20.825Z,35.71
2023-05-16T02:10:20.821Z,35.71
2023-05-16T02:11:20.879Z,35.64
2023-05-16T02:12:20.865Z,35.73
2023-05-16T02:13:20.914Z,35.69
2023-05-16T02:14:20.942Z,35.66
2023-05-16T02:15:21.004Z,35.73
2023-05-16T02:16:21.074Z,35.70
2023-05-16T02:17:21.151Z,35.65
2023-05-16T02:18:21.085Z,35.63
2023-05-16T02:19:21.146Z,35.68
2023-05-16T02:20:21.171Z,35.75
2023-05-16T02:21:21.224Z,35.82
2023-05-16T02:22:21.261Z,35.85
2023-05-16T02:23:21.295Z,35.72
2023-05-16T02:24:21.333Z,35.68
2023-05-16T02:25:21.342Z,35.74
2023-05-16T02:26:21.434Z,35.67
2023-05-16T02:27:21.427Z,35.77
2023-05-16T02:28:21.481Z,35.83
2023-05-16T02:29:21.502Z,35.67
2023-05-16T02:30:21.535Z,35.64
2023-05-16T02:31:21.653Z,35.60
2023-05-16T02:32:21.653Z,35.59
2023-05-16T02:33:22.164Z,35.61
2023-05-16T02:34:21.697Z,35.63
2023-05-16T02:35:21.743Z,35.66
2023-05-16T02:36:21.787Z,35.71
2023-05-16T02:37:21.839Z,35.80
2023-05-16T02:38:21.887Z,35.87
2023-05-16T02:39:21.906Z,35.73
2023-05-16T02:40:21.960Z,35.70
2023-05-16T02:41:21.995Z,35.73
2023-05-16T02:42:22.019Z,35.66
2023-05-16T02:43:22.092Z,35.65
2023-05-16T02:44:22.108Z,35.62
2023-05-16T02:45:22.172Z,35.60
2023-05-16T02:46:22.253Z,35.64
2023-05-16T02:47:22.272Z,35.62
2023-05-16T02:48:22.304Z,35.70
2023-05-16T02:49:22.317Z,35.66
2023-05-16T02:50:22.358Z,35.57
2023-05-16T02:51:22.418Z,35.62
2023-05-16T02:52:22.444Z,35.64
2023-05-16T02:53:22.504Z,35.59
2023-05-16T02:54:22.508Z,35.61
2023-05-16T02:55:22.840Z,35.67
2023-05-16T02:56:22.573Z,35.69
2023-05-16T02:57:22.638Z,35.60
2023-05-16T02:58:22.657Z,35.58
2023-05-16T02:59:22.680Z,35.61
2023-05-16T03:00:22.732Z,35.59
2023-05-16T03:01:22.869Z,35.58
2023-05-16T03:02:22.900Z,35.66
2023-05-16T03:03:22.895Z,35.58
2023-05-16T03:04:22.878Z,35.49
2023-05-16T03:05:23.873Z,35.48
2023-05-16T03:06:23.087Z,35.58
2023-05-16T03:07:23.132Z,35.52
2023-05-16T03:08:23.166Z,35.55
2023-05-16T03:09:23.200Z,35.56
2023-05-16T03:10:23.227Z,35.57
2023-05-16T03:11:23.266Z,35.58
2023-05-16T03:12:23.299Z,35.58
2023-05-16T03:13:23.370Z,35.56
2023-05-16T03:14:23.387Z,35.53
2023-05-16T03:15:23.418Z,35.53
2023-05-16T03:16:23.548Z,35.58
2023-05-16T03:17:23.539Z,35.56
2023-05-16T03:18:23.652Z,35.58
2023-05-16T03:19:23.636Z,35.58
2023-05-16T03:20:23.622Z,35.56
2023-05-16T03:21:23.657Z,35.50
2023-05-16T03:22:23.693Z,35.52
2023-05-16T03:23:23.726Z,35.51
2023-05-16T03:24:23.790Z,35.57
2023-05-16T03:25:23.791Z,35.64
2023-05-16T03:26:23.828Z,35.61
2023-05-16T03:27:23.882Z,35.55
2023-05-16T03:28:23.922Z,35.53
2023-05-16T03:29:23.970Z,35.58
2023-05-16T03:30:23.987Z,35.53
2023-05-16T03:31:24.090Z,35.54
2023-05-16T03:32:24.088Z,35.54
2023-05-16T03:33:24.100Z,35.62
2023-05-16T03:34:24.143Z,35.70
2023-05-16T03:35:24.197Z,35.61
2023-05-16T03:36:24.217Z,35.69
2023-05-16T03:37:24.280Z,35.66
2023-05-16T03:38:24.292Z,35.52
2023-05-16T03:39:24.349Z,35.50
2023-05-16T03:40:24.377Z,35.61
2023-05-16T03:41:24.429Z,35.55
2023-05-16T03:42:24.469Z,35.67
2023-05-16T03:43:24.510Z,35.61
2023-05-16T03:44:24.543Z,35.56
2023-05-16T03:45:24.705Z,35.44
2023-05-16T03:46:24.684Z,35.45
2023-05-16T03:47:24.725Z,35.50
2023-05-16T03:48:24.708Z,35.50
2023-05-16T03:49:24.754Z,35.50
2023-05-16T03:50:24.766Z,35.57
2023-05-16T03:51:24.805Z,35.63
2023-05-16T03:52:24.886Z,35.53
2023-05-16T03:53:24.908Z,35.54
2023-05-16T03:54:24.945Z,35.53
2023-05-16T03:55:25.184Z,35.56
2023-05-16T03:56:25.031Z,35.57
2023-05-16T03:57:25.071Z,35.53
2023-05-16T03:58:25.135Z,35.50
2023-05-16T03:59:25.161Z,35.43
2023-05-16T04:00:25.189Z,35.58
2023-05-16T04:01:25.218Z,35.53
2023-05-16T04:02:26.305Z,35.47
2023-05-16T04:03:25.353Z,35.42
2023-05-16T04:04:25.377Z,35.46
2023-05-16T04:05:25.766Z,35.43
2023-05-16T04:06:25.414Z,35.44
2023-05-16T04:07:25.466Z,35.44
2023-05-16T04:08:25.530Z,35.54
2023-05-16T04:09:25.591Z,35.65
2023-05-16T04:10:25.597Z,35.56
2023-05-16T04:11:25.636Z,35.68
2023-05-16T04:12:25.671Z,35.56
2023-05-16T04:13:25.822Z,35.60
2023-05-16T04:14:25.781Z,35.66
2023-05-16T04:15:26.152Z,35.59
2023-05-16T04:16:25.846Z,35.53
2023-05-16T04:17:25.917Z,35.57
2023-05-16T04:18:25.919Z,35.56
2023-05-16T04:19:25.991Z,35.52
2023-05-16T04:20:25.967Z,35.46
2023-05-16T04:21:26.022Z,35.55
2023-05-16T04:22:26.096Z,35.57
2023-05-16T04:23:26.101Z,35.59
2023-05-16T04:24:26.138Z,35.48
2023-05-16T04:25:26.450Z,35.52
2023-05-16T04:26:26.278Z,35.42
2023-05-16T04:27:26.273Z,35.44
2023-05-16T04:28:26.322Z,35.42
2023-05-16T04:29:26.365Z,35.43
2023-05-16T04:30:26.419Z,35.52
2023-05-16T04:31:26.485Z,35.43
2023-05-16T04:32:26.495Z,35.41
2023-05-16T04:33:26.537Z,35.55
2023-05-16T04:34:26.554Z,35.37
2023-05-16T04:35:26.787Z,35.42
2023-05-16T04:36:26.660Z,35.46
2023-05-16T04:37:26.771Z,35.45
2023-05-16T04:38:26.746Z,35.47
2023-05-16T04:39:26.792Z,35.67
2023-05-16T04:40:26.848Z,35.58
2023-05-16T04:41:26.893Z,35.56
2023-05-16T04:42:26.940Z,35.67
2023-05-16T04:43:26.990Z,35.54
2023-05-16T04:44:27.001Z,35.40
2023-05-16T04:45:27.246Z,35.37
2023-05-16T04:46:27.144Z,35.35
2023-05-16T04:47:27.149Z,35.32
2023-05-16T04:48:27.151Z,35.28
2023-05-16T04:49:27.190Z,35.26
2023-05-16T04:50:27.270Z,35.29
2023-05-16T04:51:27.339Z,35.28
2023-05-16T04:52:27.311Z,35.30
2023-05-16T04:53:27.355Z,35.26
2023-05-16T04:54:27.425Z,35.16
2023-05-16T04:55:27.707Z,35.18
2023-05-16T04:56:27.500Z,35.27
2023-05-16T04:57:27.561Z,35.38
2023-05-16T04:58:27.599Z,35.39
2023-05-16T04:59:27.636Z,35.44
2023-05-16T05:00:27.861Z,35.41
2023-05-16T05:01:34.784Z,35.41
2023-05-16T05:02:27.729Z,35.37
2023-05-16T05:03:27.666Z,35.33
2023-05-16T05:04:27.728Z,35.37
2023-05-16T05:05:27.905Z,35.32
2023-05-16T05:06:27.678Z,35.38
2023-05-16T05:07:27.659Z,35.41
2023-05-16T05:08:27.666Z,35.39
2023-05-16T05:09:27.677Z,35.42
2023-05-16T05:10:27.690Z,35.35
2023-05-16T05:11:27.620Z,35.42
2023-05-16T05:12:27.615Z,35.45
2023-05-16T05:13:27.595Z,35.33
2023-05-16T05:14:27.590Z,35.37
2023-05-16T05:15:27.877Z,35.38
2023-05-16T05:16:27.614Z,35.44
2023-05-16T05:17:27.642Z,35.29
2023-05-16T05:18:27.611Z,35.32
2023-05-16T05:19:27.596Z,35.42
2023-05-16T05:20:27.582Z,35.35
2023-05-16T05:21:27.542Z,35.42
2023-05-16T05:22:27.549Z,35.40
2023-05-16T05:23:27.532Z,35.03
2023-05-16T05:24:27.527Z,33.73
2023-05-16T05:25:27.781Z,34.38
2023-05-16T05:26:27.505Z,34.89
2023-05-16T05:27:27.511Z,35.06
2023-05-16T05:28:27.485Z,35.17
2023-05-16T05:29:27.488Z,35.26
2023-05-16T05:30:27.509Z,35.34
2023-05-16T05:31:27.547Z,35.32
2023-05-16T05:32:27.558Z,35.34
2023-05-16T05:33:27.478Z,34.53
2023-05-16T05:34:27.777Z,34.25
2023-05-16T05:35:27.716Z,35.07
2023-05-16T05:36:27.547Z,34.93
2023-05-16T05:37:27.571Z,35.18
2023-05-16T05:38:27.555Z,35.10
2023-05-16T05:39:27.611Z,35.33
2023-05-16T05:40:27.623Z,35.46
2023-05-16T05:41:27.682Z,35.51
2023-05-16T05:42:27.684Z,35.62
2023-05-16T05:43:27.699Z,35.79
2023-05-16T05:44:27.890Z,35.95
2023-05-16T05:45:27.998Z,36.21
2023-05-16T05:46:34.794Z,36.56
2023-05-16T05:47:27.871Z,36.83
2023-05-16T05:48:27.789Z,37.04
2023-05-16T05:49:27.783Z,37.25
2023-05-16T05:50:27.743Z,37.49
2023-05-16T05:51:27.726Z,37.49
2023-05-16T05:52:27.725Z,37.61
2023-05-16T05:53:27.759Z,37.70
2023-05-16T05:54:27.727Z,38.01
2023-05-16T05:55:27.872Z,38.17
2023-05-16T05:56:27.690Z,38.43
2023-05-16T05:57:27.703Z,38.59
2023-05-16T05:58:27.713Z,38.76
2023-05-16T05:59:27.712Z,38.91
2023-05-16T06:00:27.683Z,38.94
2023-05-16T06:01:27.705Z,39.19
2023-05-16T06:02:27.772Z,39.56
2023-05-16T06:03:27.772Z,39.67
2023-05-16T06:04:27.674Z,39.65
2023-05-16T06:05:27.847Z,39.62
2023-05-16T06:06:27.661Z,39.65
2023-05-16T06:07:27.677Z,39.64
2023-05-16T06:08:27.642Z,39.63
2023-05-16T06:09:27.636Z,39.66
2023-05-16T06:10:27.628Z,39.70
2023-05-16T06:11:27.595Z,39.68
2023-05-16T06:12:27.591Z,39.70
2023-05-16T06:13:27.751Z,39.69
2023-05-16T06:14:27.575Z,39.70
2023-05-16T06:15:27.933Z,39.70
2023-05-16T06:16:27.604Z,39.70
2023-05-16T06:17:27.648Z,39.72
2023-05-16T06:18:27.572Z,39.74
2023-05-16T06:19:27.582Z,39.72
2023-05-16T06:20:27.544Z,39.68
2023-05-16T06:21:27.517Z,39.69
2023-05-16T06:22:27.525Z,39.66
2023-05-16T06:23:27.563Z,39.67
2023-05-16T06:24:27.527Z,39.64
2023-05-16T06:25:27.665Z,39.61
2023-05-16T06:26:27.498Z,39.60
2023-05-16T06:27:27.503Z,39.58
2023-05-16T06:28:27.512Z,39.55
2023-05-16T06:29:27.498Z,39.56
2023-05-16T06:30:27.486Z,39.56
2023-05-16T06:31:27.483Z,39.50
2023-05-16T06:32:27.577Z,39.50
2023-05-16T06:33:27.579Z,39.45
2023-05-16T06:34:27.502Z,39.44
2023-05-16T06:35:27.646Z,39.69
2023-05-16T06:36:27.478Z,39.76
2023-05-16T06:37:27.547Z,39.77
2023-05-16T06:38:27.621Z,40.14
2023-05-16T06:39:27.610Z,40.22
2023-05-16T06:40:27.663Z,40.14
2023-05-16T06:41:27.633Z,38.93
2023-05-16T06:42:27.591Z,38.52
2023-05-16T06:43:27.642Z,38.20
2023-05-16T06:44:27.674Z,38.05
2023-05-16T06:45:27.993Z,37.79
2023-05-16T06:46:27.827Z,37.65
2023-05-16T06:47:27.809Z,37.24
2023-05-16T06:48:27.856Z,37.48
2023-05-16T06:49:27.869Z,35.93
2023-05-16T06:50:27.908Z,37.35
2023-05-16T06:51:27.913Z,37.80
2023-05-16T06:52:27.982Z,37.81
2023-05-16T06:53:27.984Z,38.57
2023-05-16T06:54:27.989Z,37.53
2023-05-16T06:55:28.199Z,36.80
2023-05-16T06:56:28.081Z,37.84
2023-05-16T06:57:28.099Z,36.17
2023-05-16T06:58:28.085Z,36.27
2023-05-16T06:59:28.278Z,36.79
2023-05-16T07:00:28.326Z,36.51
2023-05-16T07:01:28.345Z,35.97
2023-05-16T07:02:28.280Z,36.82
2023-05-16T07:03:28.361Z,36.72
2023-05-16T07:04:28.312Z,36.44
2023-05-16T07:05:28.499Z,36.38
2023-05-16T07:06:28.350Z,36.83
2023-05-16T07:07:28.387Z,36.22
2023-05-16T07:08:28.398Z,36.23
2023-05-16T07:09:28.483Z,36.43
2023-05-16T07:10:29.313Z,36.82
2023-05-16T07:11:28.462Z,37.37
2023-05-16T07:12:28.492Z,36.58
2023-05-16T07:13:28.535Z,36.84
2023-05-16T07:14:28.544Z,37.60
2023-05-16T07:15:28.824Z,37.76
2023-05-16T07:16:28.700Z,37.79
2023-05-16T07:17:28.662Z,37.73
2023-05-16T07:18:28.662Z,37.25
2023-05-16T07:19:28.850Z,37.00
2023-05-16T07:20:28.738Z,37.00
2023-05-16T07:21:28.841Z,36.68
2023-05-16T07:22:28.775Z,37.19
2023-05-16T07:23:28.793Z,36.77
2023-05-16T07:24:28.836Z,37.49
2023-05-16T07:25:29.577Z,36.94
2023-05-16T07:26:28.918Z,37.09
2023-05-16T07:27:28.928Z,37.03
2023-05-16T07:28:28.974Z,36.96
2023-05-16T07:29:29.068Z,35.94
2023-05-16T07:30:29.375Z,35.94
2023-05-16T07:31:29.121Z,37.38
2023-05-16T07:32:29.154Z,37.50
2023-05-16T07:33:29.152Z,37.58
2023-05-16T07:34:29.225Z,37.64
2023-05-16T07:35:29.473Z,37.53
2023-05-16T07:36:29.274Z,37.87
2023-05-16T07:37:31.090Z,37.39
2023-05-16T07:38:29.381Z,37.10
2023-05-16T07:39:29.419Z,37.25
2023-05-16T07:40:29.842Z,37.56
2023-05-16T07:41:29.577Z,37.97
2023-05-16T07:42:29.604Z,38.35
2023-05-16T07:43:30.321Z,38.73
2023-05-16T07:44:29.680Z,37.95
2023-05-16T07:45:30.180Z,37.26
2023-05-16T07:46:30.055Z,37.06
2023-05-16T07:47:30.016Z,37.49
2023-05-16T07:48:29.835Z,36.80
2023-05-16T07:49:29.872Z,37.94
2023-05-16T07:50:29.896Z,37.23
2023-05-16T07:51:29.959Z,37.36
2023-05-16T07:52:29.984Z,37.49
2023-05-16T07:53:29.991Z,37.52
2023-05-16T07:54:30.045Z,37.23
2023-05-16T07:55:30.082Z,36.73
2023-05-16T07:56:30.104Z,37.04
2023-05-16T07:57:30.154Z,36.02
2023-05-16T07:58:30.210Z,36.45
2023-05-16T07:59:30.274Z,35.91
2023-05-16T08:00:30.263Z,36.62
2023-05-16T08:01:30.279Z,36.30
2023-05-16T08:02:30.596Z,36.67
2023-05-16T08:03:30.578Z,36.40
2023-05-16T08:04:30.427Z,36.44
2023-05-16T08:05:30.844Z,36.77
2023-05-16T08:06:30.471Z,36.89
2023-05-16T08:07:30.585Z,36.64
2023-05-16T08:08:30.607Z,37.21
2023-05-16T08:09:30.654Z,36.47
2023-05-16T08:10:30.666Z,37.12
2023-05-16T08:11:30.704Z,36.77
2023-05-16T08:12:30.721Z,36.99
2023-05-16T08:13:30.771Z,37.89
2023-05-16T08:14:30.774Z,36.86
2023-05-16T08:15:30.835Z,36.95
2023-05-16T08:16:30.980Z,37.39
2023-05-16T08:17:31.271Z,36.64
2023-05-16T08:18:30.959Z,37.73
2023-05-16T08:19:31.039Z,36.99
2023-05-16T08:20:30.972Z,37.53
2023-05-16T08:21:30.982Z,37.57
2023-05-16T08:22:30.998Z,37.42
2023-05-16T08:23:31.041Z,36.46
2023-05-16T08:24:31.076Z,36.97
2023-05-16T08:25:31.363Z,37.67
2023-05-16T08:26:31.114Z,37.41
2023-05-16T08:27:31.119Z,37.32
2023-05-16T08:28:31.202Z,36.95
2023-05-16T08:29:31.185Z,37.24
2023-05-16T08:30:31.545Z,36.92
2023-05-16T08:31:31.284Z,37.43
2023-05-16T08:32:31.314Z,36.72
2023-05-16T08:33:31.356Z,36.29
2023-05-16T08:34:31.370Z,35.32
2023-05-16T08:35:31.387Z,36.41
2023-05-16T08:36:31.876Z,36.91
2023-05-16T08:37:31.453Z,37.01
2023-05-16T08:38:31.546Z,37.03
2023-05-16T08:39:31.572Z,37.56
2023-05-16T08:40:31.622Z,37.62
2023-05-16T08:41:31.910Z,37.44
2023-05-16T08:42:31.634Z,38.29
2023-05-16T08:43:31.651Z,38.25
2023-05-16T08:44:31.653Z,38.50
2023-05-16T08:45:31.678Z,38.47
2023-05-16T08:46:31.756Z,38.12
2023-05-16T08:47:31.849Z,38.67
2023-05-16T08:48:31.761Z,38.71
2023-05-16T08:49:31.784Z,38.38
2023-05-16T08:50:31.842Z,38.42
2023-05-16T08:51:32.342Z,38.89
2023-05-16T08:52:31.893Z,37.89
2023-05-16T08:53:31.896Z,36.04
2023-05-16T08:54:31.926Z,37.09
2023-05-16T08:55:31.899Z,36.69
2023-05-16T08:56:32.376Z,36.46
2023-05-16T08:57:32.003Z,36.53
2023-05-16T08:58:32.016Z,36.73
2023-05-16T08:59:32.042Z,35.95
2023-05-16T09:00:32.086Z,36.90
2023-05-16T09:01:32.468Z,37.11
2023-05-16T09:02:32.175Z,36.53
2023-05-16T09:03:32.214Z,36.29
2023-05-16T09:04:32.319Z,35.58
2023-05-16T09:05:32.251Z,36.60
2023-05-16T09:06:32.328Z,36.59
2023-05-16T09:07:32.327Z,37.15
2023-05-16T09:08:32.367Z,35.95
2023-05-16T09:09:32.396Z,36.27
2023-05-16T09:10:32.419Z,36.11
2023-05-16T09:11:33.066Z,35.98
2023-05-16T09:12:32.512Z,36.67
2023-05-16T09:13:32.575Z,36.37
2023-05-16T09:14:32.568Z,36.68
2023-05-16T09:15:32.702Z,36.41
2023-05-16T09:16:32.695Z,36.63
2023-05-16T09:17:39.948Z,36.44
2023-05-16T09:18:32.788Z,36.75
2023-05-16T09:19:32.721Z,36.85
2023-05-16T09:20:32.713Z,36.79
2023-05-16T09:21:33.371Z,36.64
2023-05-16T09:22:32.689Z,36.79
2023-05-16T09:23:33.711Z,34.93
2023-05-16T09:24:32.759Z,35.88
2023-05-16T09:25:32.893Z,36.24
2023-05-16T09:26:32.786Z,35.62
2023-05-16T09:27:32.808Z,35.61
2023-05-16T09:28:33.161Z,35.41
2023-05-16T09:29:34.100Z,35.23
2023-05-16T09:30:33.008Z,34.86
2023-05-16T09:31:33.080Z,34.98
2023-05-16T09:32:33.206Z,35.03
2023-05-16T09:33:33.189Z,34.86
2023-05-16T09:34:33.224Z,35.33
2023-05-16T09:36:33.294Z,35.01
2023-05-16T09:37:33.297Z,35.20
2023-05-16T09:38:33.284Z,35.01
2023-05-16T09:39:33.242Z,35.37
2023-05-16T09:40:33.266Z,35.35
2023-05-16T09:41:33.382Z,36.03
2023-05-16T09:42:33.238Z,35.61
2023-05-16T09:43:34.982Z,35.85
2023-05-16T09:44:33.255Z,35.89
2023-05-16T09:45:33.220Z,36.01
2023-05-16T09:46:33.232Z,35.96
2023-05-16T09:47:33.263Z,35.67
2023-05-16T09:48:33.238Z,35.80
2023-05-16T09:49:33.236Z,35.71
2023-05-16T09:50:33.197Z,35.68
2023-05-16T09:51:33.171Z,35.62
2023-05-16T09:52:33.189Z,35.41
2023-05-16T09:53:33.924Z,35.44
2023-05-16T09:54:33.154Z,35.41
2023-05-16T09:55:33.176Z,35.44
2023-05-16T09:56:33.123Z,35.55
2023-05-16T09:57:33.157Z,35.48
2023-05-16T09:58:33.133Z,35.51
2023-05-16T09:59:33.113Z,35.62
2023-05-16T10:00:33.144Z,35.69
2023-05-16T10:01:33.587Z,35.74
2023-05-16T10:02:33.167Z,35.79
2023-05-16T10:03:33.180Z,35.41
2023-05-16T10:04:33.140Z,35.37
2023-05-16T10:05:33.063Z,35.37
2023-05-16T10:06:33.078Z,35.34
2023-05-16T10:07:33.069Z,35.32
2023-05-16T10:08:33.059Z,35.25
2023-05-16T10:09:33.036Z,35.31
2023-05-16T10:10:33.031Z,35.26
2023-05-16T10:11:33.041Z,35.24
2023-05-16T10:12:33.015Z,35.15
2023-05-16T10:13:33.044Z,35.05
2023-05-16T10:14:33.001Z,35.11
2023-05-16T10:15:33.014Z,35.17
2023-05-16T10:16:33.290Z,35.11
2023-05-16T10:17:32.996Z,35.25
2023-05-16T10:18:33.025Z,35.28
2023-05-16T10:19:33.003Z,35.24
2023-05-16T10:20:33.023Z,35.39
2023-05-16T10:21:33.099Z,35.48
2023-05-16T10:22:33.113Z,35.61
2023-05-16T10:23:33.195Z,35.65
2023-05-16T10:24:33.230Z,35.68
2023-05-16T10:25:33.326Z,35.72
2023-05-16T10:26:33.376Z,35.80
2023-05-16T10:27:33.433Z,35.86
2023-05-16T10:28:33.483Z,35.87
2023-05-16T10:29:46.499Z,35.86
2023-05-16T10:30:34.537Z,36.02
2023-05-16T10:31:33.982Z,36.04
2023-05-16T10:32:33.573Z,36.07
2023-05-16T10:33:33.537Z,36.08
2023-05-16T10:34:33.542Z,36.12
2023-05-16T10:35:33.479Z,36.71
2023-05-16T10:36:33.920Z,37.49
2023-05-16T10:37:33.520Z,37.19
2023-05-16T10:38:33.501Z,36.33
2023-05-16T10:39:33.485Z,36.79
2023-05-16T10:40:33.483Z,37.73
2023-05-16T10:41:33.486Z,37.35
2023-05-16T10:42:33.566Z,37.20
2023-05-16T10:43:33.615Z,37.79
2023-05-16T10:44:33.601Z,38.58
2023-05-16T10:45:33.636Z,38.51
2023-05-16T10:46:33.730Z,38.38
2023-05-16T10:47:33.682Z,37.74
2023-05-16T10:48:33.745Z,38.13
2023-05-16T10:49:33.721Z,38.24
2023-05-16T10:50:33.741Z,37.71
2023-05-16T10:51:34.418Z,37.58
2023-05-16T10:52:33.975Z,37.75
2023-05-16T10:53:33.902Z,38.18
2023-05-16T10:54:34.202Z,38.12
2023-05-16T10:55:33.904Z,38.34
2023-05-16T10:56:33.855Z,38.74
2023-05-16T10:57:33.922Z,39.33
2023-05-16T10:58:33.916Z,39.67
2023-05-16T10:59:33.922Z,39.51
2023-05-16T11:00:33.951Z,39.86
2023-05-16T11:01:34.031Z,39.80
2023-05-16T11:02:34.117Z,39.30
2023-05-16T11:03:34.054Z,39.93
2023-05-16T11:04:33.938Z,39.55
2023-05-16T11:05:33.997Z,39.25
2023-05-16T11:06:33.968Z,40.01
2023-05-16T11:07:34.017Z,38.92
2023-05-16T11:08:34.021Z,38.83
2023-05-16T11:09:34.042Z,38.62
2023-05-16T11:10:34.942Z,38.28
2023-05-16T11:11:34.044Z,38.11
2023-05-16T11:12:34.039Z,38.05
2023-05-16T11:13:34.061Z,37.94
2023-05-16T11:14:34.053Z,38.28
2023-05-16T11:15:34.090Z,37.69
2023-05-16T11:16:34.188Z,37.89
2023-05-16T11:17:34.479Z,37.74
2023-05-16T11:18:34.353Z,37.57
2023-05-16T11:19:34.251Z,37.61
2023-05-16T11:20:34.412Z,37.42
2023-05-16T11:21:34.293Z,37.19
2023-05-16T11:22:34.375Z,37.52
2023-05-16T11:23:34.376Z,37.71
2023-05-16T11:24:34.399Z,38.23
2023-05-16T11:25:34.391Z,37.41
2023-05-16T11:26:34.449Z,37.72
2023-05-16T11:27:34.952Z,38.30
2023-05-16T11:28:34.454Z,38.40
2023-05-16T11:29:34.489Z,38.75
2023-05-16T11:30:34.477Z,38.41
2023-05-16T11:31:34.493Z,38.11
2023-05-16T11:32:36.072Z,37.89
2023-05-16T11:33:34.449Z,38.14
2023-05-16T11:34:34.463Z,38.06
2023-05-16T11:35:34.474Z,38.01
2023-05-16T11:36:34.435Z,37.75
2023-05-16T11:37:34.920Z,37.63
2023-05-16T11:38:34.481Z,37.58
2023-05-16T11:39:34.542Z,37.49
2023-05-16T11:40:34.477Z,37.37
2023-05-16T11:41:34.501Z,37.41
2023-05-16T11:42:34.537Z,37.37
2023-05-16T11:43:34.511Z,37.33
2023-05-16T11:44:34.532Z,37.36
2023-05-16T11:45:36.435Z,37.35
2023-05-16T11:46:34.567Z,37.36
2023-05-16T11:47:34.596Z,37.32
2023-05-16T11:48:36.527Z,37.32
2023-05-16T11:49:34.566Z,37.31
2023-05-16T11:50:34.592Z,37.31
2023-05-16T11:51:34.586Z,37.34
2023-05-16T11:52:34.710Z,37.24
2023-05-16T11:53:34.570Z,37.06
2023-05-16T11:54:34.608Z,37.04
2023-05-16T11:56:34.615Z,37.11
2023-05-16T11:57:34.560Z,37.12
2023-05-16T11:58:34.545Z,37.07
2023-05-16T11:59:34.562Z,37.04
2023-05-16T12:00:34.560Z,37.03
2023-05-16T12:01:34.545Z,37.04
2023-05-16T12:02:34.630Z,36.94
2023-05-16T12:03:34.581Z,36.91
2023-05-16T12:04:34.788Z,36.89
2023-05-16T12:05:35.577Z,36.88
2023-05-16T12:06:34.522Z,36.89
2023-05-16T12:07:34.488Z,36.90
2023-05-16T12:08:34.481Z,36.70
2023-05-16T12:09:34.463Z,36.67
2023-05-16T12:10:34.986Z,36.70
2023-05-16T12:11:34.483Z,36.69
2023-05-16T12:12:34.456Z,36.69
2023-05-16T12:13:34.458Z,36.74
2023-05-16T12:14:34.482Z,36.74
2023-05-16T12:15:34.454Z,36.74
2023-05-16T12:16:34.507Z,36.72
2023-05-16T12:17:34.486Z,36.68
2023-05-16T12:18:34.486Z,36.66
2023-05-16T12:19:34.459Z,36.60
2023-05-16T12:20:34.433Z,36.64
2023-05-16T12:21:34.419Z,36.63
2023-05-16T12:22:34.413Z,36.59
2023-05-16T12:23:34.437Z,36.55
2023-05-16T12:24:34.407Z,36.50
2023-05-16T12:25:34.372Z,36.48
2023-05-16T12:26:34.368Z,36.47
2023-05-16T12:27:34.382Z,36.45
2023-05-16T12:28:34.378Z,36.36
2023-05-16T12:29:34.341Z,36.33
2023-05-16T12:30:34.360Z,36.33
2023-05-16T12:31:34.413Z,36.35
2023-05-16T12:32:34.449Z,36.35
2023-05-16T12:33:34.366Z,36.35
2023-05-16T12:34:34.318Z,36.32
2023-05-16T12:35:34.322Z,36.16
2023-05-16T12:36:34.302Z,36.29
2023-05-16T12:37:34.283Z,36.34
2023-05-16T12:38:34.300Z,36.34
2023-05-16T12:39:35.015Z,36.38
2023-05-16T12:40:34.291Z,36.38
2023-05-16T12:41:34.287Z,36.34
2023-05-16T12:42:34.295Z,36.33
2023-05-16T12:43:34.268Z,36.33
2023-05-16T12:44:34.267Z,36.15
2023-05-16T12:45:35.578Z,36.16
2023-05-16T12:46:34.277Z,36.13
2023-05-16T12:47:34.501Z,36.14
2023-05-16T12:48:34.213Z,36.09
2023-05-16T12:49:34.247Z,36.13
2023-05-16T12:50:34.212Z,36.14
2023-05-16T12:51:35.600Z,36.15
2023-05-16T12:52:34.214Z,36.10
2023-05-16T12:53:34.233Z,36.04
2023-05-16T12:54:34.243Z,35.97